createdAt,value
2018-08-07T00:01:28.482Z,41.30
2018-08-07T00:08:52.561Z,42.20
2018-08-07T00:11:20.750Z,41.80
2018-08-07T00:16:16.844Z,41.70
2018-08-07T00:18:44.954Z,42.00
2018-08-07T00:21:13.064Z,42.80
2018-08-07T00:23:41.258Z,43.10
2018-08-07T00:26:10.126Z,42.60
2018-08-07T00:28:38.278Z,42.40
2018-08-07T00:31:06.419Z,42.30
2018-08-07T00:33:35.563Z,42.20
2018-08-07T00:36:03.679Z,42.70
2018-08-07T00:38:31.820Z,42.50
2018-08-07T00:40:59.960Z,43.00
2018-08-07T00:43:28.112Z,43.40
2018-08-07T00:45:56.271Z,43.20
2018-08-07T00:48:24.404Z,42.60
2018-08-07T00:50:52.547Z,43.50
2018-08-07T00:55:48.732Z,43.30
2018-08-07T01:05:40.564Z,44.20
2018-08-07T01:10:37.567Z,43.60
2018-08-07T01:15:33.603Z,43.70
2018-08-07T01:18:01.755Z,44.40
2018-08-07T01:22:57.839Z,43.60
2018-08-07T01:27:54.684Z,44.40
2018-08-07T01:37:48.290Z,43.80
2018-08-07T01:40:16.498Z,44.50
2018-08-07T01:42:44.631Z,44.50
2018-08-07T01:52:38.718Z,44.50
2018-08-07T01:57:36.365Z,45.40
2018-08-07T02:02:33.643Z,45.10
2018-08-07T02:07:29.782Z,45.00
2018-08-07T02:09:57.952Z,44.90
2018-08-07T02:12:26.109Z,44.70
2018-08-07T02:19:50.155Z,44.00
2018-08-07T02:32:10.275Z,44.90
2018-08-07T02:37:06.478Z,44.80
2018-08-07T02:39:34.622Z,45.10
2018-08-07T02:42:02.926Z,44.90
2018-08-07T02:44:31.055Z,45.20
2018-08-07T02:46:59.195Z,45.10
2018-08-07T02:54:23.257Z,46.40
2018-08-07T02:56:51.431Z,47.40
2018-08-07T02:59:19.721Z,47.90
2018-08-07T03:01:47.860Z,48.20
2018-08-07T03:04:16.053Z,48.80
2018-08-07T03:06:44.236Z,48.20
2018-08-07T03:09:12.417Z,48.70
2018-08-07T03:11:41.059Z,48.50
2018-08-07T03:14:09.259Z,48.90
2018-08-07T03:16:37.473Z,48.40
2018-08-07T03:19:05.671Z,49.00
2018-08-07T03:21:33.847Z,48.70
2018-08-07T03:24:02.047Z,48.50
2018-08-07T03:26:30.205Z,49.30
2018-08-07T03:28:58.361Z,49.20
2018-08-07T03:31:26.548Z,48.80
2018-08-07T03:33:54.737Z,49.10
2018-08-07T03:36:22.932Z,49.20
2018-08-07T03:38:51.078Z,49.30
2018-08-07T03:41:19.211Z,50.00
2018-08-07T03:43:47.399Z,49.80
2018-08-07T03:46:16.411Z,49.70
2018-08-07T03:48:44.645Z,49.60
2018-08-07T03:51:12.770Z,50.30
2018-08-07T03:53:40.913Z,49.80
2018-08-07T03:56:09.056Z,49.70
2018-08-07T03:58:37.171Z,50.10
2018-08-07T04:01:05.320Z,50.20
2018-08-07T04:03:33.521Z,50.00
2018-08-07T04:06:01.644Z,50.20
2018-08-07T04:08:29.801Z,50.70
2018-08-07T04:10:57.951Z,50.60
2018-08-07T04:13:26.088Z,50.40
2018-08-07T04:15:54.246Z,50.70
2018-08-07T04:18:22.419Z,50.70
2018-08-07T04:20:51.139Z,50.90
2018-08-07T04:23:19.299Z,50.50
2018-08-07T04:25:47.392Z,51.00
2018-08-07T04:28:15.532Z,51.10
2018-08-07T04:30:43.638Z,50.90
2018-08-07T04:33:11.751Z,51.00
2018-08-07T04:35:39.910Z,51.10
2018-08-07T04:38:08.040Z,51.00
2018-08-07T04:40:36.154Z,51.30
2018-08-07T04:43:04.288Z,50.60
2018-08-07T04:45:32.438Z,51.20
2018-08-07T04:48:00.599Z,51.10
2018-08-07T04:50:28.762Z,51.40
2018-08-07T04:52:56.892Z,51.60
2018-08-07T04:55:25.094Z,50.80
2018-08-07T04:57:53.309Z,51.20
2018-08-07T05:00:21.432Z,50.80
2018-08-07T05:02:49.680Z,50.80
2018-08-07T05:05:17.902Z,51.70
2018-08-07T05:07:46.050Z,51.60
2018-08-07T05:10:15.855Z,51.60
2018-08-07T05:12:44.683Z,51.40
2018-08-07T05:15:13.107Z,52.40
2018-08-07T05:17:42.380Z,51.70
2018-08-07T05:20:10.768Z,52.10
2018-08-07T05:22:39.705Z,51.60
2018-08-07T05:27:36.908Z,52.80
2018-08-07T05:30:06.510Z,51.40
2018-08-07T05:32:34.658Z,50.50
2018-08-07T05:35:03.255Z,51.70
2018-08-07T05:37:31.505Z,50.60
2018-08-07T05:40:00.161Z,50.10
2018-08-07T05:42:28.365Z,50.80
2018-08-07T05:44:56.448Z,50.20
2018-08-07T05:47:24.581Z,50.60
2018-08-07T05:49:52.727Z,50.50
2018-08-07T05:52:20.856Z,50.20
2018-08-07T05:54:48.977Z,51.50
2018-08-07T05:57:17.132Z,51.00
2018-08-07T05:59:45.342Z,51.90
2018-08-07T06:02:13.497Z,50.70
2018-08-07T06:04:41.626Z,50.90
2018-08-07T06:09:38.608Z,51.20
2018-08-07T06:12:06.733Z,50.20
2018-08-07T06:14:35.246Z,48.00
2018-08-07T06:17:03.583Z,47.60
2018-08-07T06:19:31.768Z,46.10
2018-08-07T06:21:59.915Z,46.40
2018-08-07T06:24:28.122Z,45.70
2018-08-07T06:26:56.260Z,45.40
2018-08-07T06:29:24.383Z,44.20
2018-08-07T06:31:52.551Z,43.50
2018-08-07T06:34:21.321Z,42.90
2018-08-07T06:36:49.439Z,42.40
2018-08-07T06:39:17.582Z,41.50
2018-08-07T06:41:45.722Z,40.20
2018-08-07T06:44:13.936Z,39.00
2018-08-07T06:46:42.123Z,35.90
2018-08-07T06:49:10.983Z,32.70
2018-08-07T06:56:35.431Z,27.80
2018-08-07T06:59:03.639Z,27.10
2018-08-07T07:01:31.807Z,25.60
2018-08-07T07:03:59.938Z,25.50
2018-08-07T07:06:28.151Z,25.00
2018-08-07T07:08:56.306Z,24.30
2018-08-07T07:11:24.491Z,23.10
2018-08-07T07:13:52.624Z,22.70
2018-08-07T07:16:20.786Z,22.50
2018-08-07T07:18:48.978Z,22.30
2018-08-07T07:21:17.134Z,22.10
2018-08-07T07:23:45.298Z,21.30
2018-08-07T07:26:13.438Z,21.50
2018-08-07T07:28:41.612Z,21.00
2018-08-07T07:31:09.758Z,21.40
2018-08-07T07:33:37.894Z,21.70
2018-08-07T07:36:06.063Z,21.80
2018-08-07T07:38:34.219Z,22.40
2018-08-07T07:41:02.349Z,22.10
2018-08-07T07:43:30.622Z,22.30
2018-08-07T07:45:58.759Z,22.40
2018-08-07T07:48:26.923Z,22.20
2018-08-07T07:50:55.122Z,21.50
2018-08-07T07:53:23.285Z,20.50
2018-08-07T07:55:51.467Z,20.00
2018-08-07T07:58:19.628Z,19.10
2018-08-07T08:00:47.812Z,18.90
2018-08-07T08:03:15.963Z,18.40
2018-08-07T08:05:44.275Z,18.10
2018-08-07T08:08:12.294Z,18.30
2018-08-07T08:10:40.450Z,18.20
2018-08-07T08:13:08.622Z,18.00
2018-08-07T08:15:36.798Z,17.10
2018-08-07T08:18:05.015Z,17.80
2018-08-07T08:20:33.195Z,18.30
2018-08-07T08:23:01.340Z,17.80
2018-08-07T08:25:29.500Z,18.20
2018-08-07T08:27:57.645Z,19.30
2018-08-07T08:30:25.788Z,18.30
2018-08-07T08:32:53.934Z,19.10
2018-08-07T08:35:22.186Z,19.40
2018-08-07T08:52:42.216Z,22.90
2018-08-07T08:57:40.058Z,23.30
2018-08-07T09:00:13.141Z,22.90
2018-08-07T09:02:42.047Z,22.90
2018-08-07T09:05:11.635Z,23.60
2018-08-07T09:07:40.328Z,23.50
2018-08-07T09:17:36.738Z,23.50
2018-08-07T09:29:57.155Z,21.80
2018-08-07T09:34:53.167Z,22.50
2018-08-07T09:37:21.347Z,22.30
2018-08-07T09:39:49.825Z,22.30
2018-08-07T09:44:45.879Z,23.00
2018-08-07T09:47:14.019Z,23.20
2018-08-07T09:49:42.155Z,23.20
2018-08-07T09:52:11.281Z,22.50
2018-08-07T09:54:39.445Z,23.20
2018-08-07T09:57:07.597Z,23.20
2018-08-07T09:59:35.831Z,23.30
2018-08-07T10:02:09.593Z,23.10
2018-08-07T10:04:37.728Z,22.50
2018-08-07T10:07:05.943Z,22.10
2018-08-07T10:09:34.137Z,21.60
2018-08-07T10:12:02.336Z,21.70
2018-08-07T10:14:30.511Z,21.40
2018-08-07T10:16:58.663Z,22.20
2018-08-07T10:19:26.858Z,22.10
2018-08-07T10:21:55.017Z,21.80
2018-08-07T10:24:23.205Z,21.90
2018-08-07T10:26:51.390Z,22.10
2018-08-07T10:29:19.530Z,22.20
2018-08-07T10:31:48.580Z,22.20
2018-08-07T10:34:16.862Z,21.60
2018-08-07T10:36:45.072Z,21.00
2018-08-07T10:39:13.191Z,21.00
2018-08-07T10:41:42.139Z,20.30
2018-08-07T10:54:03.034Z,21.40
2018-08-07T10:56:31.214Z,20.50
2018-08-07T11:03:55.174Z,20.70
2018-08-07T11:06:23.383Z,21.20
2018-08-07T11:13:48.173Z,20.70
2018-08-07T11:16:16.304Z,21.10
2018-08-07T11:18:44.449Z,21.30
2018-08-07T11:28:36.533Z,20.70
2018-08-07T11:31:04.695Z,20.40
2018-08-07T11:36:00.829Z,21.10
2018-08-07T11:45:52.741Z,20.70
2018-08-07T11:48:22.978Z,20.90
2018-08-07T11:50:51.060Z,20.80
2018-08-07T11:53:19.291Z,20.30
2018-08-07T11:58:15.779Z,20.90
2018-08-07T12:03:12.194Z,21.10
2018-08-07T12:08:08.682Z,20.20
2018-08-07T12:13:04.760Z,20.80
2018-08-07T12:15:32.911Z,21.40
2018-08-07T12:18:01.070Z,20.50
2018-08-07T12:20:29.242Z,20.50
2018-08-07T12:22:58.226Z,20.40
2018-08-07T12:35:26.256Z,20.60
2018-08-07T12:40:24.447Z,20.30
2018-08-07T12:42:54.336Z,20.10
2018-08-07T12:47:50.698Z,20.60
2018-08-07T13:00:14.941Z,19.50
2018-08-07T13:05:11.339Z,19.80
2018-08-07T13:12:36.309Z,19.10
2018-08-07T13:22:29.555Z,19.50
2018-08-07T13:37:17.466Z,19.30
2018-08-07T13:47:09.322Z,18.70
2018-08-07T13:52:05.398Z,20.70
2018-08-07T14:06:53.160Z,18.80
2018-08-07T14:09:21.305Z,19.30
2018-08-07T14:24:09.199Z,19.70
2018-08-07T14:26:37.432Z,19.90
2018-08-07T14:31:33.520Z,19.20
2018-08-07T14:46:21.307Z,19.90
2018-08-07T15:03:36.967Z,18.80
2018-08-07T15:13:29.078Z,19.50
2018-08-07T15:18:25.252Z,18.30
2018-08-07T15:25:49.271Z,18.30
2018-08-07T15:30:45.346Z,18.50
2018-08-07T15:35:41.399Z,18.50
2018-08-07T15:41:13.066Z,17.40
2018-08-07T15:46:09.195Z,17.80
2018-08-07T15:48:37.362Z,18.00
2018-08-07T15:58:29.431Z,17.50
2018-08-07T16:03:25.471Z,17.60
2018-08-07T16:05:53.910Z,18.00
2018-08-07T16:10:49.943Z,17.80
2018-08-07T16:13:18.090Z,17.70
2018-08-07T16:15:46.238Z,17.60
2018-08-07T16:25:39.119Z,18.30
2018-08-07T16:28:07.276Z,19.40
2018-08-07T16:35:31.331Z,19.80
2018-08-07T16:45:24.059Z,19.70
2018-08-07T16:47:52.218Z,19.90
2018-08-07T16:50:24.597Z,20.30
2018-08-07T16:55:23.159Z,19.70
2018-08-07T16:57:51.322Z,20.40
2018-08-07T17:00:19.550Z,20.20
2018-08-07T17:02:47.769Z,20.70
2018-08-07T17:05:16.814Z,20.70
2018-08-07T17:07:45.513Z,20.10
2018-08-07T17:10:20.230Z,20.90
2018-08-07T17:12:48.496Z,20.10
2018-08-07T17:17:44.871Z,20.70
2018-08-07T17:22:42.486Z,20.30
2018-08-07T17:32:42.074Z,20.40
2018-08-07T17:35:12.068Z,20.40
2018-08-07T17:37:40.230Z,20.50
2018-08-07T17:40:10.099Z,20.30
2018-08-07T17:42:39.195Z,20.60
2018-08-07T17:45:08.711Z,20.90
2018-08-07T17:47:37.196Z,21.40
2018-08-07T17:50:06.512Z,20.70
2018-08-07T17:52:34.855Z,21.10
2018-08-07T17:55:03.008Z,21.20
2018-08-07T17:57:31.127Z,22.00
2018-08-07T17:59:59.327Z,21.80
2018-08-07T18:02:27.474Z,21.40
2018-08-07T18:04:55.625Z,23.60
2018-08-07T18:09:51.687Z,22.90
2018-08-07T18:12:19.858Z,22.60
2018-08-07T18:27:07.922Z,25.00
2018-08-07T18:34:32.006Z,25.40
2018-08-07T18:41:56.244Z,23.30
2018-08-07T18:44:24.348Z,24.10
2018-08-07T18:46:52.590Z,23.50
2018-08-07T18:51:48.860Z,22.80
2018-08-07T18:59:12.893Z,23.30
2018-08-07T19:01:41.265Z,23.50
2018-08-07T19:06:37.370Z,24.20
2018-08-07T19:11:34.868Z,24.50
2018-08-07T19:33:46.772Z,25.70
2018-08-07T19:48:35.363Z,28.10
2018-08-07T19:51:03.550Z,28.00
2018-08-07T19:53:31.704Z,27.00
2018-08-07T20:10:55.390Z,29.10
2018-08-07T20:20:47.454Z,29.10
2018-08-07T20:30:40.221Z,28.90
2018-08-07T20:43:00.098Z,28.10
2018-08-07T20:45:28.279Z,28.30
2018-08-07T20:47:56.410Z,28.30
2018-08-07T20:52:53.763Z,28.40
2018-08-07T20:57:49.961Z,28.90
2018-08-07T21:02:49.044Z,29.10
2018-08-07T21:10:14.893Z,29.40
2018-08-07T21:12:43.382Z,29.60
2018-08-07T21:17:40.838Z,30.00
2018-08-07T21:25:14.713Z,29.90
2018-08-07T21:42:40.946Z,34.00
2018-08-07T21:47:37.379Z,32.80
2018-08-07T21:50:08.659Z,33.10
2018-08-07T21:52:37.101Z,30.70
2018-08-07T21:55:05.913Z,31.20
2018-08-07T21:57:34.063Z,30.60
2018-08-07T22:07:26.103Z,30.60
2018-08-07T22:09:54.304Z,30.90
2018-08-07T22:12:23.049Z,31.60
2018-08-07T22:24:43.083Z,34.20
2018-08-07T22:29:40.121Z,35.30
2018-08-07T22:37:04.143Z,36.60
2018-08-07T22:42:00.423Z,37.70
2018-08-07T22:46:56.599Z,38.50
2018-08-07T22:49:24.756Z,39.10
2018-08-07T22:54:21.119Z,39.00
2018-08-07T22:59:17.312Z,39.60
2018-08-07T23:06:41.402Z,40.90
2018-08-07T23:09:09.899Z,40.80
2018-08-07T23:14:06.096Z,40.80
2018-08-07T23:16:34.259Z,40.90
2018-08-07T23:21:30.370Z,41.10
2018-08-07T23:43:42.031Z,42.70
2018-08-07T23:46:13.208Z,43.40
2018-08-07T23:48:41.367Z,43.80
2018-08-07T23:51:09.564Z,43.80
2018-08-07T23:53:37.731Z,43.80
2018-08-07T23:56:06.175Z,43.30
2018-08-07T23:58:34.341Z,43.30
